メインページ
METAR-TAF:

METAR-TAF

空港 :

インディアナポリス, インディアナ州, アメリカ合衆国

インディアナポリス国際空港

緯度: 39-43-30N, 経度: 086-16-55W, 海抜: 243m

現時点の気象観測

当レポートは45分前の18:54(UTC)に作成
南/南東の風 11kt、最大21ktの突風を伴う
気温 24°C
湿度 47%
気圧 1015 hPa
視程: 16.1km
高度6000ftの雲は散在している
高度15000ftの千切れ雲あり

METAR: KIND 251854Z 16011G21KT 10SM SCT060 BKN150 24/12 A2997 RMK AO2 SLP144 T02390117

時間: 15:39 (19:39 UTC)

予報

当レポートは1時間49分前の17:50(UTC)に作成
予報は25日の 18時(UTC)から 26日の 24時(UTC)まで有効
の風 13kt、最大23ktの突風を伴う
視程: 10km
高度13000ftの千切れ雲あり
25日の 2100時(UTC)から
南/南東の風 11kt
視程: 10km
高度7000ftの千切れ雲あり, 積乱雲.
弱いにわか雨, 近辺で激しい雷雨
26日の 0300時(UTC)から
南東の風 8kt
視程: 8.0km
高度8000ftの曇り
弱いにわか雨, 靄
26日の 0800時(UTC)から
南/南東の風 10kt
視程: 4.8km
高度1500ftの曇り
弱いにわか雨, 靄
26日の 1400時(UTC)から
の風 9kt
視程: 10km
高度4000ftの曇り
弱いにわか雨

TAF: KIND 251750Z 2518/2624 18013G23KT P6SM BKN130 FM252100 16011KT P6SM -SHRA VCTS BKN070CB FM260300 14008KT 5SM -SHRA BR OVC080 FM260800 15010KT 3SM -SHRA BR OVC015 FM261400 18009KT P6SM -SHRA OVC040

4,000以上の空港の気象観測と天気予報(METAR報とTAF報)

利用可能な観測所は地図上に黄色い丸と赤い丸で示す。

丸の上にカーソルを重ねると観測所名を参照できる。

次にクリックすると気象観測と天気予報を参照できる。

マップの切り替え:黒色「×」印の緑ボタンをクリックして拡大、「-」印の緑ボタンをクリックして縮小、緑色の三角印をクリックして隣りの地図に切り替え


METAR-TAF: